Time;durP1;ratioP1;P1;durP2;ratioP2;P2;SDS_P1;SDS_P2;PMS_P1;PMS_P2;Temp;Humidity;BMP_temperature;BMP_pressure;BME280_temperature;BME280_humidity;BME280_pressure;Samples;Min_cycle;Max_cycle;Signal;HPM_P1;HPM_P2
2023/08/06 00:01:44;;;;;;;;;;;20.70;99.90;;;;;;5101076;27;20035;-73
2023/08/06 00:04:09;;;;;;;;;;;20.70;99.90;;;;;;5084089;27;19942;-73
2023/08/06 00:06:35;;;;;;;;;;;20.70;99.90;;;;;;5092113;27;20067;-73
2023/08/06 00:09:00;;;;;;;;;;;20.70;99.90;;;;;;5096763;27;19937;-73
2023/08/06 00:11:26;;;;;;;;;;;20.70;99.90;;;;;;5097701;27;19945;-73
2023/08/06 00:13:51;;;;;;;;;;;20.70;99.90;;;;;;5097558;27;19941;-73
2023/08/06 00:16:17;;;;;;;;;;;20.70;99.90;;;;;;5105292;27;19946;-72
2023/08/06 00:18:42;;;;;;;;;;;20.70;99.90;;;;;;5100451;27;20600;-73
2023/08/06 00:21:08;;;;;;;;;;;20.70;99.90;;;;;;5100457;27;19957;-73
2023/08/06 00:23:33;;;;;;;;;;;20.70;99.90;;;;;;5100204;27;19942;-72
2023/08/06 00:25:59;;;;;;;;;;;20.80;99.90;;;;;;5099623;27;19938;-73
2023/08/06 00:28:24;;;;;;;;;;;20.80;99.90;;;;;;5098578;27;20031;-73
2023/08/06 00:30:53;;;;;;;;;;;20.80;99.90;;;;;;5101830;27;19946;-73
2023/08/06 00:33:19;;;;;;;;;;;20.80;99.90;;;;;;5092443;27;20086;-73
2023/08/06 00:35:45;;;;;;;;;;;20.80;99.90;;;;;;5053508;28;19942;-73
2023/08/06 00:38:10;;;;;;;;;;;20.80;99.90;;;;;;5090438;28;19946;-73
2023/08/06 00:40:36;;;;;;;;;;;20.80;99.90;;;;;;5101383;27;20209;-73
2023/08/06 00:43:03;;;;;;;;;;;20.80;99.90;;;;;;5101158;27;21603;-73
2023/08/06 00:45:29;;;;;;;;;;;20.80;99.90;;;;;;5102587;28;19945;-73
2023/08/06 00:47:55;;;;;;;;;;;20.80;99.90;;;;;;5101446;28;20024;-73
2023/08/06 00:50:22;;;;;;;;;;;20.80;99.90;;;;;;5085850;28;19943;-73
2023/08/06 00:52:51;;;;;;;;;;;20.80;99.90;;;;;;5101700;28;20083;-72
2023/08/06 00:55:16;;;;;;;;;;;20.80;99.90;;;;;;5099348;28;19945;-72
2023/08/06 00:57:42;;;;;;;;;;;20.70;99.90;;;;;;5100977;28;19944;-72
2023/08/06 01:00:08;;;;;;;;;;;20.70;99.90;;;;;;5101555;27;20004;-72
2023/08/06 01:02:33;;;;;;;;;;;20.70;99.90;;;;;;5100810;28;19957;-72
2023/08/06 01:04:59;;;;;;;;;;;20.70;99.90;;;;;;5101152;28;19984;-72
2023/08/06 01:07:43;;;;;;;;;;;20.70;99.90;;;;;;5099840;28;19944;-72
2023/08/06 01:10:14;;;;;;;;;;;20.60;99.90;;;;;;5099175;28;20055;-72
2023/08/06 01:12:45;;;;;;;;;;;20.60;99.90;;;;;;5103804;28;20039;-73
2023/08/06 01:15:13;;;;;;;;;;;20.60;99.90;;;;;;5102624;28;19940;-73
2023/08/06 01:17:39;;;;;;;;;;;20.60;99.90;;;;;;5100825;28;20066;-73
2023/08/06 01:20:05;;;;;;;;;;;20.60;99.90;;;;;;5099166;28;19960;-73
2023/08/06 01:22:30;;;;;;;;;;;20.70;99.90;;;;;;5104516;28;19940;-73
2023/08/06 01:24:56;;;;;;;;;;;20.60;99.90;;;;;;5099233;28;20055;-73
2023/08/06 01:27:30;;;;;;;;;;;20.60;99.90;;;;;;5103998;28;20025;-73
2023/08/06 01:30:04;;;;;;;;;;;20.60;99.90;;;;;;5103892;28;19937;-73
2023/08/06 01:32:31;;;;;;;;;;;20.60;99.90;;;;;;5103595;28;19986;-72
2023/08/06 01:34:59;;;;;;;;;;;20.60;99.90;;;;;;5100375;28;19957;-72
2023/08/06 01:37:24;;;;;;;;;;;20.60;99.90;;;;;;5102108;28;20307;-72
2023/08/06 01:39:50;;;;;;;;;;;20.60;99.90;;;;;;5103685;28;19965;-73
2023/08/06 01:42:15;;;;;;;;;;;20.60;99.90;;;;;;5100085;28;20743;-71
2023/08/06 01:44:41;;;;;;;;;;;20.60;99.90;;;;;;5107788;27;19939;-72
2023/08/06 01:47:06;;;;;;;;;;;20.60;99.90;;;;;;5104358;27;19947;-72
2023/08/06 01:49:32;;;;;;;;;;;20.60;99.90;;;;;;5111603;27;19943;-71
2023/08/06 01:51:57;;;;;;;;;;;20.60;99.90;;;;;;5106312;27;19950;-72
2023/08/06 01:54:23;;;;;;;;;;;20.60;99.90;;;;;;5108173;27;20062;-72
2023/08/06 01:56:48;;;;;;;;;;;20.50;99.90;;;;;;5104617;27;20354;-72
2023/08/06 01:59:14;;;;;;;;;;;20.40;99.90;;;;;;5104317;27;20050;-72
2023/08/06 02:01:39;;;;;;;;;;;20.40;99.90;;;;;;5108005;27;19973;-72
2023/08/06 02:04:05;;;;;;;;;;;20.40;99.90;;;;;;5106192;27;20496;-72
2023/08/06 02:06:30;;;;;;;;;;;20.30;99.90;;;;;;5103592;27;20386;-73
2023/08/06 02:08:56;;;;;;;;;;;20.30;99.90;;;;;;5100772;27;20887;-73
2023/08/06 02:11:21;;;;;;;;;;;20.30;99.90;;;;;;5106541;27;19947;-73
2023/08/06 02:13:47;;;;;;;;;;;20.20;99.90;;;;;;5104210;27;19934;-73
2023/08/06 02:16:12;;;;;;;;;;;20.20;99.90;;;;;;5105135;27;20051;-73
2023/08/06 02:18:38;;;;;;;;;;;20.20;99.90;;;;;;5107024;27;19942;-72
2023/08/06 02:21:03;;;;;;;;;;;20.20;99.90;;;;;;5106923;27;21976;-73
2023/08/06 02:23:29;;;;;;;;;;;20.20;99.90;;;;;;5102046;27;19942;-73
2023/08/06 02:25:58;;;;;;;;;;;20.20;99.90;;;;;;5103957;27;20402;-73
2023/08/06 02:28:23;;;;;;;;;;;20.20;99.90;;;;;;5105788;27;19936;-73
2023/08/06 02:30:50;;;;;;;;;;;20.20;99.90;;;;;;5108690;27;19947;-73
2023/08/06 02:33:15;;;;;;;;;;;20.20;99.90;;;;;;5102759;27;20026;-73
2023/08/06 02:35:41;;;;;;;;;;;20.20;99.90;;;;;;5103968;27;20015;-73
2023/08/06 02:38:06;;;;;;;;;;;20.20;99.90;;;;;;5108042;27;19986;-73
2023/08/06 02:40:32;;;;;;;;;;;20.20;99.90;;;;;;5110694;27;19968;-73
2023/08/06 02:42:57;;;;;;;;;;;20.20;99.90;;;;;;5104468;27;19940;-73
2023/08/06 02:45:23;;;;;;;;;;;20.20;99.90;;;;;;5089316;27;19949;-73
2023/08/06 02:47:48;;;;;;;;;;;20.20;99.90;;;;;;5105606;27;19966;-73
2023/08/06 02:50:14;;;;;;;;;;;20.20;99.90;;;;;;5102521;27;20660;-74
2023/08/06 02:52:40;;;;;;;;;;;20.20;99.90;;;;;;5106395;27;19951;-73
2023/08/06 02:55:06;;;;;;;;;;;20.20;99.90;;;;;;5103184;27;20521;-73
2023/08/06 02:57:31;;;;;;;;;;;20.20;99.90;;;;;;5103719;27;19945;-73
2023/08/06 02:59:57;;;;;;;;;;;20.20;99.90;;;;;;5105276;27;21694;-73
2023/08/06 03:02:22;;;;;;;;;;;20.20;99.90;;;;;;5106652;27;19951;-73
2023/08/06 03:04:48;;;;;;;;;;;20.20;99.90;;;;;;5085265;27;19974;-73
2023/08/06 03:07:13;;;;;;;;;;;20.20;99.90;;;;;;5105377;27;19948;-73
2023/08/06 03:09:39;;;;;;;;;;;20.20;99.90;;;;;;5101844;27;20427;-74
2023/08/06 03:12:05;;;;;;;;;;;20.20;99.90;;;;;;5105526;27;19936;-73
2023/08/06 03:14:30;;;;;;;;;;;20.20;99.90;;;;;;5100244;27;19950;-73
2023/08/06 03:16:56;;;;;;;;;;;20.10;99.90;;;;;;5104715;27;20399;-73
2023/08/06 03:19:21;;;;;;;;;;;20.10;99.90;;;;;;5104745;27;19932;-73
2023/08/06 03:21:47;;;;;;;;;;;20.10;99.90;;;;;;5103752;27;19971;-73
2023/08/06 03:24:13;;;;;;;;;;;20.10;99.90;;;;;;5100661;27;19935;-73
2023/08/06 03:26:38;;;;;;;;;;;20.10;99.90;;;;;;5104876;27;20704;-73
2023/08/06 03:29:04;;;;;;;;;;;20.10;99.90;;;;;;5104931;27;19982;-73
2023/08/06 03:31:29;;;;;;;;;;;20.10;99.90;;;;;;5101369;27;20087;-73
2023/08/06 03:33:55;;;;;;;;;;;20.10;99.90;;;;;;5105370;27;20302;-73
2023/08/06 03:36:21;;;;;;;;;;;20.00;99.90;;;;;;5100856;27;19944;-73
2023/08/06 03:38:47;;;;;;;;;;;20.00;99.90;;;;;;5100370;27;19946;-73
2023/08/06 03:41:12;;;;;;;;;;;20.00;99.90;;;;;;5106959;27;19972;-73
2023/08/06 03:43:38;;;;;;;;;;;19.90;99.90;;;;;;5100727;27;19936;-73
2023/08/06 03:46:03;;;;;;;;;;;20.00;99.90;;;;;;5109168;27;19946;-73
2023/08/06 03:48:29;;;;;;;;;;;20.00;99.90;;;;;;5106686;27;19951;-73
2023/08/06 03:50:54;;;;;;;;;;;20.00;99.90;;;;;;5103773;27;19938;-73
2023/08/06 03:53:20;;;;;;;;;;;19.90;99.90;;;;;;5102870;27;20419;-73
2023/08/06 03:55:45;;;;;;;;;;;19.90;99.90;;;;;;5104840;27;19949;-73
2023/08/06 03:58:11;;;;;;;;;;;19.90;99.90;;;;;;5103647;27;19947;-72
2023/08/06 04:00:36;;;;;;;;;;;19.90;99.90;;;;;;5098429;27;19963;-72
2023/08/06 04:03:02;;;;;;;;;;;19.90;99.90;;;;;;5099983;27;19948;-72
2023/08/06 04:05:27;;;;;;;;;;;19.90;99.90;;;;;;5098695;27;19946;-72
2023/08/06 04:07:53;;;;;;;;;;;19.90;99.90;;;;;;5100368;27;19936;-72
2023/08/06 04:10:18;;;;;;;;;;;19.90;99.90;;;;;;5102095;27;21107;-73
2023/08/06 04:12:44;;;;;;;;;;;19.90;99.90;;;;;;5102628;27;20338;-72
2023/08/06 04:15:09;;;;;;;;;;;19.90;99.90;;;;;;5103253;27;20012;-73
2023/08/06 04:17:35;;;;;;;;;;;19.90;99.90;;;;;;5102199;27;19942;-73
2023/08/06 04:20:01;;;;;;;;;;;19.90;99.90;;;;;;5098139;27;20080;-73
2023/08/06 04:22:27;;;;;;;;;;;19.90;99.90;;;;;;5102699;27;20383;-73
2023/08/06 04:24:52;;;;;;;;;;;19.90;99.90;;;;;;5100027;27;19953;-73
2023/08/06 04:27:18;;;;;;;;;;;20.00;99.90;;;;;;5100788;27;19942;-73
2023/08/06 04:29:44;;;;;;;;;;;20.00;99.90;;;;;;5104303;27;19946;-74
2023/08/06 04:32:10;;;;;;;;;;;20.00;99.90;;;;;;5103274;27;19947;-73
2023/08/06 04:34:36;;;;;;;;;;;20.00;99.90;;;;;;5101074;27;19958;-73
2023/08/06 04:37:03;;;;;;;;;;;20.00;99.90;;;;;;5100811;27;19989;-73
2023/08/06 04:39:28;;;;;;;;;;;20.00;99.90;;;;;;5100377;27;19939;-73
2023/08/06 04:41:54;;;;;;;;;;;20.00;99.90;;;;;;5101559;27;20040;-73
2023/08/06 04:44:20;;;;;;;;;;;20.00;99.90;;;;;;5102938;27;19948;-74
2023/08/06 04:46:46;;;;;;;;;;;20.00;99.90;;;;;;5104018;28;19932;-73
2023/08/06 04:49:11;;;;;;;;;;;20.00;99.90;;;;;;5099911;28;19942;-73
2023/08/06 04:51:37;;;;;;;;;;;20.00;99.90;;;;;;5103043;28;20414;-72
2023/08/06 04:54:02;;;;;;;;;;;20.00;99.90;;;;;;5099058;28;19953;-72
2023/08/06 04:56:28;;;;;;;;;;;20.00;99.90;;;;;;5100920;28;19977;-72
2023/08/06 04:58:53;;;;;;;;;;;20.00;99.90;;;;;;5105553;28;20345;-72
2023/08/06 05:01:19;;;;;;;;;;;20.00;99.90;;;;;;5105113;28;19964;-72
2023/08/06 05:03:44;;;;;;;;;;;19.80;99.90;;;;;;5081533;28;19950;-72
2023/08/06 05:06:10;;;;;;;;;;;19.70;99.90;;;;;;5103216;28;19978;-72
2023/08/06 05:08:36;;;;;;;;;;;19.40;99.90;;;;;;5102945;28;20306;-72
2023/08/06 05:11:01;;;;;;;;;;;19.20;99.90;;;;;;5099514;28;19939;-72
2023/08/06 05:13:27;;;;;;;;;;;19.10;99.90;;;;;;5102410;28;19951;-72
2023/08/06 05:15:55;;;;;;;;;;;19.00;99.90;;;;;;5103292;28;20256;-72
2023/08/06 05:18:20;;;;;;;;;;;18.90;99.90;;;;;;5107295;27;20668;-72
2023/08/06 05:20:47;;;;;;;;;;;18.80;99.90;;;;;;5102546;27;19965;-72
2023/08/06 05:23:13;;;;;;;;;;;18.70;99.90;;;;;;5090618;27;19939;-72
2023/08/06 05:25:38;;;;;;;;;;;18.50;99.90;;;;;;5106015;27;19937;-72
2023/08/06 05:28:04;;;;;;;;;;;18.40;99.90;;;;;;5105989;27;19943;-72
2023/08/06 05:30:29;;;;;;;;;;;18.20;99.90;;;;;;5107041;27;20410;-72
2023/08/06 05:32:55;;;;;;;;;;;18.20;99.90;;;;;;5105458;27;19978;-72
2023/08/06 05:35:21;;;;;;;;;;;18.10;99.90;;;;;;5104458;27;19951;-72
2023/08/06 05:37:47;;;;;;;;;;;18.10;99.90;;;;;;5105470;27;20338;-73
2023/08/06 05:40:12;;;;;;;;;;;18.10;99.90;;;;;;5103986;27;19968;-73
2023/08/06 05:42:38;;;;;;;;;;;18.10;99.90;;;;;;5105683;27;19940;-72
2023/08/06 05:45:04;;;;;;;;;;;18.10;99.90;;;;;;5106004;27;19943;-73
2023/08/06 05:47:30;;;;;;;;;;;18.20;99.90;;;;;;5106585;27;20023;-72
2023/08/06 05:49:55;;;;;;;;;;;18.20;99.90;;;;;;5106306;27;19947;-72
2023/08/06 05:52:21;;;;;;;;;;;18.20;99.90;;;;;;5103281;27;20075;-73
2023/08/06 05:54:46;;;;;;;;;;;18.10;99.90;;;;;;5105931;27;19939;-73
2023/08/06 05:57:12;;;;;;;;;;;18.20;99.90;;;;;;5103254;27;19948;-72
2023/08/06 05:59:37;;;;;;;;;;;18.10;99.90;;;;;;5105054;27;20050;-72
2023/08/06 06:02:03;;;;;;;;;;;18.20;99.90;;;;;;5104551;27;20536;-73
2023/08/06 06:04:29;;;;;;;;;;;18.30;99.90;;;;;;5110066;27;19945;-73
2023/08/06 06:06:54;;;;;;;;;;;18.30;99.90;;;;;;5104961;27;19952;-72
2023/08/06 06:09:20;;;;;;;;;;;18.30;99.90;;;;;;5103784;27;19938;-73
2023/08/06 06:11:45;;;;;;;;;;;18.30;99.90;;;;;;5104658;27;20283;-72
2023/08/06 06:14:11;;;;;;;;;;;18.20;99.90;;;;;;5106081;27;20352;-72
2023/08/06 06:16:36;;;;;;;;;;;18.20;99.90;;;;;;5105397;27;20007;-71
2023/08/06 06:19:02;;;;;;;;;;;18.20;99.90;;;;;;5101537;27;19935;-71
2023/08/06 06:21:27;;;;;;;;;;;18.20;99.90;;;;;;5103054;27;20405;-71
2023/08/06 06:23:52;;;;;;;;;;;18.20;99.90;;;;;;5104785;27;19941;-72
2023/08/06 06:26:18;;;;;;;;;;;18.20;99.90;;;;;;5105912;27;22618;-71
2023/08/06 06:28:44;;;;;;;;;;;18.20;99.90;;;;;;5103601;27;19956;-70
2023/08/06 06:31:09;;;;;;;;;;;18.20;99.90;;;;;;5108381;27;20358;-71
2023/08/06 06:33:35;;;;;;;;;;;18.20;99.90;;;;;;5104054;27;19955;-75
2023/08/06 06:36:03;;;;;;;;;;;18.20;99.90;;;;;;5093658;27;19941;-79
2023/08/06 06:38:28;;;;;;;;;;;18.20;99.90;;;;;;5106565;27;20033;-75
2023/08/06 06:40:57;;;;;;;;;;;18.30;99.90;;;;;;5104849;27;20589;-75
2023/08/06 06:43:22;;;;;;;;;;;18.40;99.90;;;;;;5109486;27;20069;-76
2023/08/06 06:45:52;;;;;;;;;;;18.40;99.90;;;;;;5102220;27;20529;-72
2023/08/06 06:48:17;;;;;;;;;;;18.50;99.90;;;;;;5101103;27;19985;-73
2023/08/06 06:50:46;;;;;;;;;;;18.60;99.90;;;;;;5099928;27;20763;-73
2023/08/06 06:53:12;;;;;;;;;;;18.60;99.90;;;;;;5087576;27;19952;-74
2023/08/06 06:55:37;;;;;;;;;;;18.70;99.90;;;;;;5086790;27;19939;-74
2023/08/06 06:58:03;;;;;;;;;;;18.60;99.90;;;;;;5104476;27;20464;-74
2023/08/06 07:00:28;;;;;;;;;;;18.60;99.90;;;;;;5106403;27;19969;-75
2023/08/06 07:02:54;;;;;;;;;;;18.60;99.90;;;;;;5107212;27;19947;-74
2023/08/06 07:05:19;;;;;;;;;;;18.60;99.90;;;;;;5108898;27;20460;-75
2023/08/06 07:07:45;;;;;;;;;;;18.60;99.90;;;;;;5105836;27;19942;-75
2023/08/06 07:10:11;;;;;;;;;;;18.60;99.90;;;;;;5108566;27;20312;-74
2023/08/06 07:12:36;;;;;;;;;;;18.60;99.90;;;;;;5107182;27;20330;-76
2023/08/06 07:15:04;;;;;;;;;;;18.50;99.90;;;;;;5108025;27;20552;-74
2023/08/06 07:17:30;;;;;;;;;;;18.40;99.90;;;;;;5104594;27;20371;-75
2023/08/06 07:19:55;;;;;;;;;;;18.40;99.90;;;;;;5107903;27;20035;-68
2023/08/06 07:22:21;;;;;;;;;;;18.30;99.90;;;;;;5106075;27;19947;-69
2023/08/06 07:24:46;;;;;;;;;;;18.20;99.90;;;;;;5104038;27;20349;-69
2023/08/06 07:27:12;;;;;;;;;;;18.10;99.90;;;;;;5106166;27;20355;-69
2023/08/06 07:29:37;;;;;;;;;;;18.10;99.90;;;;;;5106518;27;19951;-69
2023/08/06 07:32:03;;;;;;;;;;;18.20;99.90;;;;;;5105673;27;19949;-69
2023/08/06 07:34:28;;;;;;;;;;;18.20;99.90;;;;;;5104146;27;19958;-69
2023/08/06 07:36:54;;;;;;;;;;;18.20;99.90;;;;;;5109445;27;19931;-70
2023/08/06 07:39:19;;;;;;;;;;;18.30;99.90;;;;;;5105682;27;19937;-71
2023/08/06 07:41:45;;;;;;;;;;;18.40;99.90;;;;;;5102457;27;20071;-70
2023/08/06 07:44:11;;;;;;;;;;;18.40;99.90;;;;;;5104474;27;19941;-70
2023/08/06 07:46:38;;;;;;;;;;;18.50;99.90;;;;;;5106279;27;19939;-71
2023/08/06 07:49:03;;;;;;;;;;;18.50;99.90;;;;;;5091492;27;19944;-70
2023/08/06 07:51:29;;;;;;;;;;;18.50;99.90;;;;;;5108414;27;19949;-71
2023/08/06 07:53:54;;;;;;;;;;;18.50;99.90;;;;;;5108266;27;19968;-70
2023/08/06 07:56:20;;;;;;;;;;;18.50;99.90;;;;;;5103946;27;19935;-72
2023/08/06 07:58:45;;;;;;;;;;;18.50;99.90;;;;;;5102909;27;20253;-72
2023/08/06 08:01:11;;;;;;;;;;;18.50;99.90;;;;;;5100708;27;20306;-70
2023/08/06 08:03:36;;;;;;;;;;;18.50;99.90;;;;;;5105829;27;19990;-71
2023/08/06 08:06:02;;;;;;;;;;;18.60;99.90;;;;;;5099896;27;19989;-71
2023/08/06 08:08:27;;;;;;;;;;;18.70;99.90;;;;;;5105886;27;19999;-70
2023/08/06 08:10:55;;;;;;;;;;;18.80;99.90;;;;;;5105408;27;19968;-71
2023/08/06 08:13:20;;;;;;;;;;;18.90;99.90;;;;;;5103161;27;19943;-71
2023/08/06 08:15:46;;;;;;;;;;;18.90;99.90;;;;;;5101495;27;19997;-74
2023/08/06 08:18:11;;;;;;;;;;;18.90;99.90;;;;;;5107526;27;19952;-76
2023/08/06 08:20:37;;;;;;;;;;;18.90;99.90;;;;;;5107135;27;19963;-74
2023/08/06 08:23:02;;;;;;;;;;;18.90;99.90;;;;;;5095990;27;19940;-73
2023/08/06 08:25:28;;;;;;;;;;;19.00;99.90;;;;;;5106954;27;20777;-73
2023/08/06 08:27:54;;;;;;;;;;;19.00;99.90;;;;;;5101758;27;19945;-73
2023/08/06 08:30:20;;;;;;;;;;;19.00;99.90;;;;;;5103150;27;19937;-73
2023/08/06 08:32:45;;;;;;;;;;;19.00;99.90;;;;;;5107939;27;20391;-69
2023/08/06 08:35:12;;;;;;;;;;;18.90;99.90;;;;;;5106415;27;20313;-70
2023/08/06 08:37:38;;;;;;;;;;;18.90;99.90;;;;;;5102303;27;19951;-69
2023/08/06 08:40:05;;;;;;;;;;;18.90;99.90;;;;;;5101703;27;19958;-70
2023/08/06 08:42:30;;;;;;;;;;;18.80;99.90;;;;;;5103517;28;19961;-70
2023/08/06 08:44:56;;;;;;;;;;;18.80;99.90;;;;;;5105058;27;19954;-68
2023/08/06 08:47:22;;;;;;;;;;;18.80;99.90;;;;;;5101069;27;20099;-70
2023/08/06 08:49:48;;;;;;;;;;;18.80;99.90;;;;;;5097944;28;20080;-69
2023/08/06 08:52:15;;;;;;;;;;;18.70;99.90;;;;;;5089274;28;19944;-69
2023/08/06 08:54:40;;;;;;;;;;;18.70;99.90;;;;;;5097558;28;19945;-70
2023/08/06 08:57:06;;;;;;;;;;;18.60;99.90;;;;;;5102196;28;20438;-69
2023/08/06 08:59:33;;;;;;;;;;;18.60;99.90;;;;;;5098372;28;20327;-69
2023/08/06 09:02:00;;;;;;;;;;;18.50;99.90;;;;;;5105924;27;19993;-69
2023/08/06 09:04:26;;;;;;;;;;;18.40;99.90;;;;;;5104569;28;20048;-69
2023/08/06 09:06:54;;;;;;;;;;;18.40;99.90;;;;;;5104082;28;19942;-69
2023/08/06 09:09:24;;;;;;;;;;;18.40;99.90;;;;;;5104726;28;19953;-68
2023/08/06 09:11:51;;;;;;;;;;;18.30;99.90;;;;;;5107882;28;19952;-69
2023/08/06 09:14:17;;;;;;;;;;;18.30;99.90;;;;;;5094113;28;19972;-69
2023/08/06 09:16:43;;;;;;;;;;;18.20;99.90;;;;;;5102892;28;20543;-69
2023/08/06 09:19:09;;;;;;;;;;;18.20;99.90;;;;;;5105417;28;20061;-69
2023/08/06 09:21:39;;;;;;;;;;;18.20;99.90;;;;;;5102775;28;19968;-69
2023/08/06 09:24:08;;;;;;;;;;;18.20;99.90;;;;;;5103864;28;20021;-69
2023/08/06 09:26:34;;;;;;;;;;;18.20;99.90;;;;;;5102388;28;19983;-68
2023/08/06 09:28:59;;;;;;;;;;;18.20;99.90;;;;;;5102584;28;20028;-71
2023/08/06 09:31:32;;;;;;;;;;;18.30;99.90;;;;;;5102360;28;19950;-72
2023/08/06 09:33:59;;;;;;;;;;;18.30;99.90;;;;;;5104603;28;19963;-72
2023/08/06 09:36:25;;;;;;;;;;;18.30;99.90;;;;;;5103476;28;19941;-72
2023/08/06 09:38:50;;;;;;;;;;;18.40;99.90;;;;;;5103151;28;20371;-73
2023/08/06 09:41:25;;;;;;;;;;;18.40;99.90;;;;;;5102893;28;19965;-71
2023/08/06 09:43:51;;;;;;;;;;;18.40;99.90;;;;;;5100948;28;19940;-72
2023/08/06 09:46:17;;;;;;;;;;;18.40;99.90;;;;;;5097748;28;20536;-72
2023/08/06 09:48:48;;;;;;;;;;;18.50;99.90;;;;;;5102207;28;20028;-72
2023/08/06 09:51:14;;;;;;;;;;;18.60;99.90;;;;;;5107198;28;19946;-72
2023/08/06 09:53:40;;;;;;;;;;;18.60;99.90;;;;;;5081224;28;19943;-72
2023/08/06 09:56:06;;;;;;;;;;;18.60;99.90;;;;;;5101588;28;20342;-72
2023/08/06 09:58:32;;;;;;;;;;;18.70;99.90;;;;;;5099133;28;20317;-72
2023/08/06 10:00:58;;;;;;;;;;;18.70;99.90;;;;;;5101547;28;19961;-72
2023/08/06 10:03:24;;;;;;;;;;;18.70;99.90;;;;;;5100843;28;19936;-71
2023/08/06 10:05:50;;;;;;;;;;;18.80;99.90;;;;;;5093892;27;20034;-69
2023/08/06 10:08:15;;;;;;;;;;;18.90;99.90;;;;;;5106874;27;19951;-68
2023/08/06 10:10:41;;;;;;;;;;;18.90;99.90;;;;;;5106564;27;20087;-68
2023/08/06 10:13:07;;;;;;;;;;;18.90;99.90;;;;;;5108969;27;19947;-68
2023/08/06 10:15:33;;;;;;;;;;;18.80;99.90;;;;;;5106193;27;19945;-68
2023/08/06 10:18:00;;;;;;;;;;;18.70;99.90;;;;;;5105004;27;20325;-68
2023/08/06 10:20:26;;;;;;;;;;;18.70;99.90;;;;;;5105313;27;19958;-68
2023/08/06 10:23:01;;;;;;;;;;;18.80;99.90;;;;;;5105466;27;20316;-68
2023/08/06 10:25:30;;;;;;;;;;;18.80;99.90;;;;;;5106799;27;20487;-73
2023/08/06 10:27:56;;;;;;;;;;;18.80;99.90;;;;;;5108492;27;19936;-73
2023/08/06 10:30:24;;;;;;;;;;;18.80;99.90;;;;;;5105726;27;19999;-73
2023/08/06 10:32:51;;;;;;;;;;;18.70;99.90;;;;;;5107326;27;19964;-73
2023/08/06 10:35:34;;;;;;;;;;;18.60;99.90;;;;;;5106080;27;19986;-73
2023/08/06 10:38:05;;;;;;;;;;;18.60;99.90;;;;;;5109097;27;20030;-73
2023/08/06 10:40:31;;;;;;;;;;;18.50;99.90;;;;;;5104994;27;20577;-73
2023/08/06 10:43:00;;;;;;;;;;;18.50;99.90;;;;;;5106793;27;19936;-73
2023/08/06 10:45:28;;;;;;;;;;;18.50;99.90;;;;;;5106692;27;20301;-73
2023/08/06 10:47:58;;;;;;;;;;;18.40;99.90;;;;;;5106124;27;19944;-73
2023/08/06 10:50:24;;;;;;;;;;;18.40;99.90;;;;;;5106866;27;19942;-72
2023/08/06 10:52:50;;;;;;;;;;;18.30;99.90;;;;;;5099874;27;19954;-72
2023/08/06 10:55:23;;;;;;;;;;;18.20;99.90;;;;;;5094132;27;20034;-73
2023/08/06 10:57:48;;;;;;;;;;;18.20;99.90;;;;;;5106392;27;19950;-73
2023/08/06 11:00:14;;;;;;;;;;;18.30;99.90;;;;;;5105523;27;20037;-73
2023/08/06 11:02:40;;;;;;;;;;;18.30;99.90;;;;;;5103678;27;20654;-72
2023/08/06 11:05:06;;;;;;;;;;;18.30;99.90;;;;;;5111231;27;19984;-72
2023/08/06 11:07:32;;;;;;;;;;;18.20;99.90;;;;;;5095948;27;20383;-72
2023/08/06 11:10:01;;;;;;;;;;;18.20;99.90;;;;;;5075021;27;19957;-73
2023/08/06 11:12:28;;;;;;;;;;;18.20;99.90;;;;;;5090693;27;20055;-72
2023/08/06 11:14:53;;;;;;;;;;;18.20;99.90;;;;;;5088420;27;19941;-73
2023/08/06 11:17:19;;;;;;;;;;;18.20;99.90;;;;;;5080798;27;20206;-72
2023/08/06 11:19:45;;;;;;;;;;;18.20;99.90;;;;;;5090861;27;19950;-67
2023/08/06 11:22:10;;;;;;;;;;;18.20;99.90;;;;;;5087438;27;20009;-67
2023/08/06 11:24:37;;;;;;;;;;;18.20;99.90;;;;;;5093689;27;21104;-67
2023/08/06 11:27:10;;;;;;;;;;;18.20;99.90;;;;;;5082713;27;19941;-67
2023/08/06 11:29:39;;;;;;;;;;;18.20;99.90;;;;;;5084747;27;19998;-65
2023/08/06 11:32:04;;;;;;;;;;;18.20;99.90;;;;;;5095704;27;19972;-63
2023/08/06 11:34:30;;;;;;;;;;;18.20;99.90;;;;;;5109536;27;20346;-63
2023/08/06 11:36:56;;;;;;;;;;;18.20;99.90;;;;;;5102557;27;19934;-74
2023/08/06 11:39:22;;;;;;;;;;;18.10;99.90;;;;;;5110505;27;20026;-72
2023/08/06 11:41:48;;;;;;;;;;;18.20;99.90;;;;;;5103112;27;19971;-72
2023/08/06 11:44:14;;;;;;;;;;;18.20;99.90;;;;;;5105438;27;20021;-72
2023/08/06 11:46:55;;;;;;;;;;;18.20;99.90;;;;;;5097550;27;19953;-72
2023/08/06 11:49:37;;;;;;;;;;;18.20;99.90;;;;;;5092701;27;20345;-72
2023/08/06 11:52:19;;;;;;;;;;;18.20;99.90;;;;;;5097142;27;19939;-73
2023/08/06 11:54:46;;;;;;;;;;;18.30;99.90;;;;;;5109007;27;20041;-73
2023/08/06 11:57:12;;;;;;;;;;;18.40;99.90;;;;;;5108343;27;20405;-67
2023/08/06 11:59:38;;;;;;;;;;;18.30;99.90;;;;;;5105942;27;19952;-67
2023/08/06 12:02:07;;;;;;;;;;;18.30;99.90;;;;;;5104270;27;19961;-67
2023/08/06 12:04:51;;;;;;;;;;;18.20;99.90;;;;;;5105872;27;19941;-64
2023/08/06 12:07:17;;;;;;;;;;;18.20;99.90;;;;;;5107994;27;20496;-64
2023/08/06 12:09:42;;;;;;;;;;;18.20;99.90;;;;;;5108228;27;19978;-65
2023/08/06 12:12:08;;;;;;;;;;;18.20;99.90;;;;;;5105939;27;19936;-65
2023/08/06 12:14:36;;;;;;;;;;;18.20;99.90;;;;;;5104895;27;20054;-73
2023/08/06 12:17:02;;;;;;;;;;;18.20;99.90;;;;;;5103314;27;20417;-72
2023/08/06 12:19:27;;;;;;;;;;;18.20;99.90;;;;;;5104914;27;19950;-73
2023/08/06 12:21:53;;;;;;;;;;;18.30;99.90;;;;;;5106099;27;21999;-72
2023/08/06 12:24:18;;;;;;;;;;;18.30;99.90;;;;;;5108664;27;20037;-72
2023/08/06 12:26:44;;;;;;;;;;;18.40;99.90;;;;;;5101326;27;19935;-72
2023/08/06 12:29:09;;;;;;;;;;;18.50;99.90;;;;;;5085287;28;20074;-72
2023/08/06 12:31:35;;;;;;;;;;;18.50;99.90;;;;;;5112611;27;20030;-72
2023/08/06 12:34:00;;;;;;;;;;;18.50;99.90;;;;;;5103642;27;19966;-65
2023/08/06 12:36:26;;;;;;;;;;;18.50;99.90;;;;;;5095631;27;19938;-65
2023/08/06 12:38:51;;;;;;;;;;;18.50;99.90;;;;;;5101279;27;19961;-66
2023/08/06 12:41:17;;;;;;;;;;;18.50;99.90;;;;;;5096245;27;19970;-66
2023/08/06 12:43:42;;;;;;;;;;;18.50;99.90;;;;;;5074987;28;19947;-65
2023/08/06 12:46:08;;;;;;;;;;;18.60;99.90;;;;;;5086304;28;19938;-65
2023/08/06 12:48:33;;;;;;;;;;;18.60;99.90;;;;;;5084752;28;19939;-66
2023/08/06 12:50:59;;;;;;;;;;;18.70;99.90;;;;;;5085594;28;20601;-66
2023/08/06 12:53:24;;;;;;;;;;;18.80;99.90;;;;;;5085377;28;19952;-65
2023/08/06 12:55:50;;;;;;;;;;;18.90;99.90;;;;;;5087724;28;20216;-65
2023/08/06 12:58:15;;;;;;;;;;;18.80;99.90;;;;;;5085346;28;19943;-65
2023/08/06 13:00:41;;;;;;;;;;;18.80;99.90;;;;;;5080883;28;19979;-66
2023/08/06 13:03:07;;;;;;;;;;;18.90;99.90;;;;;;5088179;28;19953;-65
2023/08/06 13:05:33;;;;;;;;;;;18.90;99.90;;;;;;5076201;28;19938;-65
2023/08/06 13:07:58;;;;;;;;;;;19.00;99.90;;;;;;5085936;28;19951;-65
2023/08/06 13:10:25;;;;;;;;;;;19.00;99.90;;;;;;5086742;28;19942;-64
2023/08/06 13:12:50;;;;;;;;;;;19.10;99.90;;;;;;5079632;28;19954;-65
2023/08/06 13:15:19;;;;;;;;;;;19.00;99.90;;;;;;5064562;28;20011;-65
2023/08/06 13:17:45;;;;;;;;;;;19.20;99.90;;;;;;5084413;28;20161;-65
2023/08/06 13:20:11;;;;;;;;;;;19.30;99.90;;;;;;5083299;28;19997;-65
2023/08/06 13:22:37;;;;;;;;;;;19.20;99.90;;;;;;5083966;28;19936;-65
2023/08/06 13:25:03;;;;;;;;;;;19.10;99.90;;;;;;5087305;28;20618;-64
2023/08/06 13:27:29;;;;;;;;;;;19.20;99.90;;;;;;5080833;28;19936;-73
2023/08/06 13:29:55;;;;;;;;;;;19.10;99.90;;;;;;5083818;28;20020;-72
2023/08/06 13:32:21;;;;;;;;;;;19.00;99.90;;;;;;5072215;28;19937;-71
2023/08/06 13:34:46;;;;;;;;;;;18.90;99.90;;;;;;5087580;28;19969;-72
2023/08/06 13:37:12;;;;;;;;;;;18.90;99.90;;;;;;5086162;28;19972;-72
2023/08/06 13:39:38;;;;;;;;;;;18.80;99.90;;;;;;5086706;28;20017;-74
2023/08/06 13:42:04;;;;;;;;;;;18.70;99.90;;;;;;5106670;27;20020;-73
2023/08/06 13:44:30;;;;;;;;;;;18.50;99.90;;;;;;5101516;27;20084;-72
2023/08/06 13:46:56;;;;;;;;;;;18.40;99.90;;;;;;5103674;27;19958;-72
2023/08/06 13:49:21;;;;;;;;;;;18.30;99.90;;;;;;5102468;27;19970;-71
2023/08/06 13:51:47;;;;;;;;;;;18.20;99.90;;;;;;5103086;27;19945;-74
2023/08/06 13:54:13;;;;;;;;;;;18.20;99.90;;;;;;5101364;27;19951;-73
2023/08/06 13:56:39;;;;;;;;;;;18.10;99.90;;;;;;5107267;27;19946;-73
2023/08/06 13:59:05;;;;;;;;;;;18.10;99.90;;;;;;5107658;27;20416;-73
2023/08/06 14:01:31;;;;;;;;;;;18.10;99.90;;;;;;5108966;27;19974;-73
2023/08/06 14:03:57;;;;;;;;;;;18.10;99.90;;;;;;5107786;27;21078;-74
2023/08/06 14:06:22;;;;;;;;;;;18.10;99.90;;;;;;5105324;27;19940;-72
2023/08/06 14:08:48;;;;;;;;;;;18.10;99.90;;;;;;5102334;27;19933;-72
2023/08/06 14:11:14;;;;;;;;;;;18.10;99.90;;;;;;5106073;27;20405;-73